Time;durP1;ratioP1;P1;durP2;ratioP2;P2;SDS_P1;SDS_P2;PMS_P1;PMS_P2;Temp;Humidity;BMP_temperature;BMP_pressure;BME280_temperature;BME280_humidity;BME280_pressure;Samples;Min_cycle;Max_cycle;Signal;HPM_P1;HPM_P2
2021/05/02 00:01:48;;;;;;;59.33;35.30;;;7.20;99.90;;;;;;5050649;28;20851;-74
2021/05/02 00:04:14;;;;;;;59.67;33.87;;;7.20;99.90;;;;;;5050890;28;20551;-74
2021/05/02 00:06:40;;;;;;;58.13;33.97;;;7.20;99.90;;;;;;5050507;28;20424;-72
2021/05/02 00:09:06;;;;;;;52.87;31.50;;;7.10;99.90;;;;;;5050819;28;20184;-72
2021/05/02 00:11:33;;;;;;;49.93;32.40;;;7.10;99.90;;;;;;5046540;28;20431;-73
2021/05/02 00:14:00;;;;;;;53.07;32.43;;;7.00;99.90;;;;;;5050888;28;20401;-73
2021/05/02 00:16:26;;;;;;;49.33;30.57;;;7.10;99.90;;;;;;5050316;28;20440;-72
2021/05/02 00:18:52;;;;;;;40.70;29.07;;;7.00;99.90;;;;;;5050766;28;20886;-73
2021/05/02 00:21:18;;;;;;;47.80;31.30;;;7.00;99.90;;;;;;5050413;28;20474;-72
2021/05/02 00:23:44;;;;;;;44.23;30.87;;;7.10;99.90;;;;;;5049977;28;20485;-74
2021/05/02 00:26:10;;;;;;;50.50;30.80;;;7.00;99.90;;;;;;5049646;28;20409;-74
2021/05/02 00:28:42;;;;;;;48.53;31.90;;;7.00;99.90;;;;;;5038433;28;20258;-73
2021/05/02 00:31:09;;;;;;;48.07;31.73;;;6.90;99.90;;;;;;5057223;28;20458;-73
2021/05/02 00:33:36;;;;;;;47.63;30.10;;;6.80;99.90;;;;;;5057174;28;20410;-74
2021/05/02 00:36:05;;;;;;;49.60;30.27;;;6.80;99.90;;;;;;5052970;28;20425;-73
2021/05/02 00:38:35;;;;;;;44.43;31.23;;;6.90;99.90;;;;;;5056871;28;20949;-73
2021/05/02 00:41:05;;;;;;;48.60;32.20;;;6.90;99.90;;;;;;5052848;28;20462;-73
2021/05/02 00:43:38;;;;;;;53.67;33.40;;;6.90;99.90;;;;;;5056890;28;20915;-75
2021/05/02 00:46:29;;;;;;;51.70;32.57;;;6.90;99.90;;;;;;5053120;28;20414;-73
2021/05/02 00:49:13;;;;;;;53.83;32.30;;;6.80;99.90;;;;;;5055923;28;20420;-71
2021/05/02 00:51:41;;;;;;;47.60;30.37;;;6.80;99.90;;;;;;5053945;28;20434;-73
2021/05/02 00:54:14;;;;;;;40.57;31.20;;;6.80;99.90;;;;;;5057004;28;20418;-73
2021/05/02 00:57:00;;;;;;;47.80;31.07;;;6.80;99.90;;;;;;5056672;28;20521;-75
2021/05/02 00:59:49;;;;;;;51.53;32.57;;;6.80;99.90;;;;;;5055195;28;20442;-73
2021/05/02 01:02:15;;;;;;;47.20;31.10;;;6.80;99.90;;;;;;5037216;28;20498;-74
2021/05/02 01:04:44;;;;;;;45.87;32.47;;;6.80;99.90;;;;;;5056491;28;20383;-75
2021/05/02 01:07:22;;;;;;;46.40;32.10;;;6.80;99.90;;;;;;5056738;28;20491;-73
2021/05/02 01:09:49;;;;;;;52.37;32.60;;;6.80;99.90;;;;;;5056751;28;20386;-72
2021/05/02 01:12:18;;;;;;;44.33;32.80;;;6.70;99.90;;;;;;5056872;28;20420;-72
2021/05/02 01:14:47;;;;;;;46.57;32.67;;;6.70;99.90;;;;;;5057156;28;20513;-73
2021/05/02 01:17:15;;;;;;;52.00;33.83;;;6.70;99.90;;;;;;5056738;28;20458;-75
2021/05/02 01:19:41;;;;;;;50.77;33.77;;;6.80;99.90;;;;;;5056589;28;20416;-75
2021/05/02 01:22:13;;;;;;;51.53;34.20;;;6.80;99.90;;;;;;5056817;28;20461;-74
2021/05/02 01:24:39;;;;;;;54.23;32.10;;;6.70;99.90;;;;;;5056770;28;20425;-73
2021/05/02 01:27:05;;;;;;;50.10;31.73;;;6.70;99.90;;;;;;5038839;28;20427;-75
2021/05/02 01:29:31;;;;;;;52.10;33.27;;;6.70;99.90;;;;;;5056536;28;21096;-73
2021/05/02 01:31:57;;;;;;;48.30;32.20;;;6.70;99.90;;;;;;5038837;28;20254;-72
2021/05/02 01:34:23;;;;;;;42.10;31.77;;;6.70;99.90;;;;;;5056610;28;21010;-72
2021/05/02 01:36:49;;;;;;;46.50;31.60;;;6.80;99.90;;;;;;5038434;28;20177;-73
2021/05/02 01:39:14;;;;;;;48.20;32.70;;;6.80;99.90;;;;;;5053371;28;20441;-72
2021/05/02 01:41:40;;;;;;;50.27;31.73;;;6.80;99.90;;;;;;5052105;28;20582;-74
2021/05/02 01:44:05;;;;;;;49.37;32.40;;;6.70;99.90;;;;;;5053580;28;20189;-73
2021/05/02 01:46:40;;;;;;;47.50;32.73;;;6.70;99.90;;;;;;5053293;28;20181;-73
2021/05/02 01:49:10;;;;;;;42.93;31.03;;;6.70;99.90;;;;;;5049822;28;20345;-72
2021/05/02 01:51:37;;;;;;;49.07;32.43;;;6.70;99.90;;;;;;5049660;28;20822;-73
2021/05/02 01:54:03;;;;;;;42.13;30.10;;;6.70;99.90;;;;;;5049424;28;20422;-72
2021/05/02 01:56:31;;;;;;;43.77;30.57;;;6.70;99.90;;;;;;5052812;28;20414;-74
2021/05/02 01:59:03;;;;;;;50.23;32.40;;;6.70;99.90;;;;;;5053197;28;20426;-74
2021/05/02 02:01:29;;;;;;;42.50;30.73;;;6.70;99.90;;;;;;5052818;28;20468;-73
2021/05/02 02:03:57;;;;;;;42.77;30.03;;;6.70;99.90;;;;;;5053077;28;20493;-73
2021/05/02 02:06:23;;;;;;;48.00;31.33;;;6.60;99.90;;;;;;5034669;28;20423;-72
2021/05/02 02:08:48;;;;;;;48.70;30.57;;;6.60;99.90;;;;;;5052849;28;20533;-73
2021/05/02 02:11:14;;;;;;;53.23;32.90;;;6.60;99.90;;;;;;5052795;28;20579;-74
2021/05/02 02:13:45;;;;;;;46.27;31.07;;;6.60;99.90;;;;;;5035030;28;20271;-72
2021/05/02 02:16:10;;;;;;;50.00;32.20;;;6.60;99.90;;;;;;5034675;28;20269;-72
2021/05/02 02:18:36;;;;;;;50.47;33.23;;;6.50;99.90;;;;;;5052729;28;20525;-73
2021/05/02 02:21:02;;;;;;;44.17;32.70;;;6.50;99.90;;;;;;5048543;28;20200;-72
2021/05/02 02:23:33;;;;;;;51.43;36.77;;;6.50;99.90;;;;;;5052529;28;20183;-73
2021/05/02 02:26:17;;;;;;;53.17;33.77;;;6.50;99.90;;;;;;5034709;28;20446;-72
2021/05/02 02:28:44;;;;;;;47.13;33.23;;;6.50;99.90;;;;;;5032300;28;20428;-74
2021/05/02 02:31:12;;;;;;;51.10;34.67;;;6.50;99.90;;;;;;5052404;28;20445;-72
2021/05/02 02:33:40;;;;;;;47.27;32.00;;;6.50;99.90;;;;;;5034755;28;20451;-73
2021/05/02 02:36:06;;;;;;;51.43;35.60;;;6.40;99.90;;;;;;5052174;28;20408;-72
2021/05/02 02:38:35;;;;;;;56.20;36.70;;;6.40;99.90;;;;;;5052187;28;20426;-72
2021/05/02 02:41:02;;;;;;;59.47;37.13;;;6.40;99.90;;;;;;5052218;28;20242;-72
2021/05/02 02:43:31;;;;;;;54.13;36.90;;;6.40;99.90;;;;;;5052343;28;20502;-74
2021/05/02 02:45:58;;;;;;;53.83;35.57;;;6.30;99.90;;;;;;5051966;28;20491;-73
2021/05/02 02:48:27;;;;;;;60.50;36.90;;;6.40;99.90;;;;;;5052114;28;20403;-73
2021/05/02 02:50:59;;;;;;;58.17;36.73;;;6.40;99.90;;;;;;5051717;28;20839;-72
2021/05/02 02:53:31;;;;;;;57.87;37.70;;;6.40;99.90;;;;;;5052032;28;20897;-72
2021/05/02 02:56:05;;;;;;;53.27;35.57;;;6.40;99.90;;;;;;5051848;28;20445;-72
2021/05/02 02:58:49;;;;;;;51.23;35.20;;;6.40;99.90;;;;;;5051834;28;20422;-73
2021/05/02 03:01:15;;;;;;;57.70;35.67;;;6.40;99.90;;;;;;5049364;28;20446;-72
2021/05/02 03:03:42;;;;;;;58.57;36.10;;;6.40;99.90;;;;;;5052023;28;20499;-73
2021/05/02 03:06:09;;;;;;;54.50;37.43;;;6.40;99.90;;;;;;5051526;28;20425;-73
2021/05/02 03:08:37;;;;;;;54.40;38.10;;;6.40;99.90;;;;;;5051693;28;20425;-73
2021/05/02 03:11:03;;;;;;;57.37;37.00;;;6.40;99.90;;;;;;5048084;28;20442;-73
2021/05/02 03:13:29;;;;;;;67.97;37.80;;;6.40;99.90;;;;;;5051602;28;20422;-71
2021/05/02 03:15:57;;;;;;;56.47;38.07;;;6.40;99.90;;;;;;5051579;28;20843;-73
2021/05/02 03:18:26;;;;;;;58.07;36.77;;;6.40;99.90;;;;;;5051345;28;20197;-73
2021/05/02 03:21:06;;;;;;;59.63;38.33;;;6.40;99.90;;;;;;5051544;28;20522;-73
2021/05/02 03:23:33;;;;;;;56.73;36.60;;;6.40;99.90;;;;;;5051341;28;20535;-72
2021/05/02 03:26:04;;;;;;;61.23;39.00;;;6.40;99.90;;;;;;5051257;28;20419;-74
2021/05/02 03:28:46;;;;;;;55.23;36.33;;;6.40;99.90;;;;;;5051059;28;20423;-73
2021/05/02 03:31:13;;;;;;;62.00;39.20;;;6.40;99.90;;;;;;5048575;28;20527;-72
2021/05/02 03:33:47;;;;;;;65.93;39.60;;;6.40;99.90;;;;;;5051313;28;20511;-72
2021/05/02 03:36:17;;;;;;;57.77;38.40;;;6.30;99.90;;;;;;5051045;28;20451;-73
2021/05/02 03:38:47;;;;;;;58.67;37.03;;;6.40;99.90;;;;;;5033226;28;20913;-73
2021/05/02 03:41:13;;;;;;;70.23;41.47;;;6.30;99.90;;;;;;5050922;28;20446;-73
2021/05/02 03:43:39;;;;;;;61.43;39.23;;;6.30;99.90;;;;;;5051054;28;20426;-72
2021/05/02 03:46:05;;;;;;;59.20;40.40;;;6.30;99.90;;;;;;5033151;28;20868;-73
2021/05/02 03:48:32;;;;;;;60.10;38.20;;;6.30;99.90;;;;;;5050758;28;20993;-72
2021/05/02 03:50:59;;;;;;;59.40;40.33;;;6.30;99.90;;;;;;5051012;28;20503;-73
2021/05/02 03:53:24;;;;;;;52.70;37.47;;;6.30;99.90;;;;;;5050787;28;20787;-73
2021/05/02 03:55:50;;;;;;;56.57;39.30;;;6.30;99.90;;;;;;5050806;28;20433;-73
2021/05/02 03:58:17;;;;;;;60.77;39.10;;;6.30;99.90;;;;;;5050798;28;20212;-72
2021/05/02 04:00:44;;;;;;;58.43;39.50;;;6.30;99.90;;;;;;5050785;28;20200;-74
2021/05/02 04:03:12;;;;;;;56.00;39.17;;;6.30;99.90;;;;;;5050250;28;20837;-73
2021/05/02 04:05:38;;;;;;;63.47;39.37;;;6.30;99.90;;;;;;5050316;28;20492;-73
2021/05/02 04:08:04;;;;;;;56.90;38.30;;;6.30;99.90;;;;;;5050972;28;20431;-73
2021/05/02 04:10:29;;;;;;;57.10;38.80;;;6.30;99.90;;;;;;5050489;28;20209;-73
2021/05/02 04:12:55;;;;;;;62.27;37.00;;;6.30;99.90;;;;;;5050918;28;20927;-72
2021/05/02 04:15:21;;;;;;;54.97;39.97;;;6.30;99.90;;;;;;5050554;28;20192;-72
2021/05/02 04:17:46;;;;;;;49.53;36.17;;;6.30;99.90;;;;;;5050700;28;20182;-73
2021/05/02 04:20:12;;;;;;;51.87;37.00;;;6.30;99.90;;;;;;5050507;28;20261;-73
2021/05/02 04:22:38;;;;;;;53.07;38.23;;;6.30;99.90;;;;;;5050700;28;20715;-72
2021/05/02 04:25:05;;;;;;;53.90;38.50;;;6.30;99.90;;;;;;5050484;28;20425;-73
2021/05/02 04:27:31;;;;;;;61.27;37.43;;;6.30;99.90;;;;;;5032489;28;20460;-73
2021/05/02 04:29:57;;;;;;;51.27;36.17;;;6.30;99.90;;;;;;5050364;28;20441;-73
2021/05/02 04:32:23;;;;;;;57.20;38.83;;;6.30;99.90;;;;;;5050471;28;20652;-73
2021/05/02 04:34:49;;;;;;;55.70;38.90;;;6.30;99.90;;;;;;5032398;28;20957;-73
2021/05/02 04:37:15;;;;;;;59.00;39.73;;;6.30;99.90;;;;;;5050240;28;20443;-72
2021/05/02 04:39:40;;;;;;;56.27;38.83;;;6.30;99.90;;;;;;5050277;28;20268;-72
2021/05/02 04:42:06;;;;;;;52.00;36.30;;;6.30;99.90;;;;;;5050638;28;20695;-73
2021/05/02 04:44:32;;;;;;;53.27;36.67;;;6.30;99.90;;;;;;5050431;28;20218;-73
2021/05/02 04:46:57;;;;;;;61.07;38.70;;;6.30;99.90;;;;;;5050178;28;20948;-74
2021/05/02 04:49:23;;;;;;;62.67;38.20;;;6.30;99.90;;;;;;5050272;28;20169;-73
2021/05/02 04:51:49;;;;;;;54.73;37.60;;;6.40;99.90;;;;;;5050295;28;20185;-73
2021/05/02 04:54:14;;;;;;;57.73;37.80;;;6.40;99.90;;;;;;5050400;28;20192;-72
2021/05/02 04:56:40;;;;;;;60.27;40.17;;;6.40;99.90;;;;;;5050015;28;20205;-74
2021/05/02 04:59:07;;;;;;;62.30;38.67;;;6.40;99.90;;;;;;5050411;28;20264;-73
2021/05/02 05:01:33;;;;;;;60.20;39.17;;;6.40;99.90;;;;;;5046011;28;20214;-73
2021/05/02 05:03:59;;;;;;;57.43;38.87;;;6.40;99.90;;;;;;5050283;28;20786;-74
2021/05/02 05:06:24;;;;;;;58.57;39.40;;;6.50;99.90;;;;;;5049917;28;20420;-73
2021/05/02 05:08:51;;;;;;;58.73;40.23;;;6.50;99.90;;;;;;5032489;28;20597;-73
2021/05/02 05:11:17;;;;;;;53.73;38.43;;;6.50;99.90;;;;;;5050135;28;20212;-72
2021/05/02 05:13:42;;;;;;;60.00;38.40;;;6.50;99.90;;;;;;5034198;28;20390;-73
2021/05/02 05:16:08;;;;;;;50.87;36.17;;;6.60;99.90;;;;;;5053918;28;20585;-73
2021/05/02 05:18:33;;;;;;;60.70;39.07;;;6.50;99.90;;;;;;5053747;28;20176;-72
2021/05/02 05:20:59;;;;;;;58.90;38.57;;;6.60;99.90;;;;;;5053929;28;20208;-72
2021/05/02 05:23:24;;;;;;;54.47;38.30;;;6.60;99.90;;;;;;5053880;28;20601;-72
2021/05/02 05:25:54;;;;;;;58.13;37.67;;;6.70;99.90;;;;;;5053665;28;20169;-74
2021/05/02 05:28:19;;;;;;;54.37;36.77;;;6.70;99.90;;;;;;5053463;28;20585;-73
2021/05/02 05:30:45;;;;;;;54.07;38.17;;;6.70;99.90;;;;;;5054053;28;20444;-72
2021/05/02 05:33:11;;;;;;;54.13;36.37;;;6.70;99.90;;;;;;5053846;28;20427;-73
2021/05/02 05:35:38;;;;;;;52.77;36.57;;;6.70;99.90;;;;;;5053405;28;20691;-73
2021/05/02 05:38:04;;;;;;;52.43;35.87;;;6.70;99.90;;;;;;5049842;28;20597;-73
2021/05/02 05:40:30;;;;;;;48.33;34.00;;;6.80;99.90;;;;;;5053080;28;21091;-73
2021/05/02 05:42:56;;;;;;;43.47;34.50;;;6.80;99.90;;;;;;5035866;28;20423;-72
2021/05/02 05:45:23;;;;;;;45.83;33.97;;;6.80;99.90;;;;;;5035359;28;20193;-75
2021/05/02 05:47:50;;;;;;;43.70;33.30;;;6.90;99.90;;;;;;5053644;28;20412;-72
2021/05/02 05:50:16;;;;;;;43.70;32.40;;;7.00;99.90;;;;;;5053102;28;20467;-73
2021/05/02 05:52:43;;;;;;;45.30;34.10;;;7.00;99.90;;;;;;5053543;28;20426;-73
2021/05/02 05:55:10;;;;;;;42.23;31.17;;;7.10;99.90;;;;;;5035134;28;20923;-73
2021/05/02 05:57:37;;;;;;;52.00;35.10;;;7.20;99.90;;;;;;5053140;28;20431;-72
2021/05/02 06:00:09;;;;;;;39.47;31.17;;;7.20;99.90;;;;;;5049202;28;20943;-73
2021/05/02 06:02:35;;;;;;;39.70;30.53;;;7.30;99.90;;;;;;5049422;28;20483;-74
2021/05/02 06:05:02;;;;;;;45.60;33.70;;;7.40;99.90;;;;;;5053307;28;21090;-72
2021/05/02 06:07:27;;;;;;;44.17;32.13;;;7.50;99.90;;;;;;5052780;28;20456;-72
2021/05/02 06:09:53;;;;;;;50.53;36.77;;;7.70;99.90;;;;;;5052989;28;20461;-72
2021/05/02 06:12:21;;;;;;;44.60;34.17;;;8.10;99.90;;;;;;5052803;28;20180;-72
2021/05/02 06:14:48;;;;;;;39.93;31.40;;;8.40;99.90;;;;;;5052933;28;20192;-72
2021/05/02 06:17:14;;;;;;;39.40;31.30;;;8.70;99.90;;;;;;5052555;28;20944;-72
2021/05/02 06:19:40;;;;;;;35.03;28.03;;;9.00;99.90;;;;;;5052774;28;20839;-72
2021/05/02 06:22:05;;;;;;;37.83;28.20;;;9.20;99.90;;;;;;5052850;28;20461;-72
2021/05/02 06:24:31;;;;;;;31.07;25.10;;;9.20;99.90;;;;;;5052278;28;20183;-72
2021/05/02 06:26:57;;;;;;;30.07;25.37;;;9.10;99.90;;;;;;5052104;28;20202;-72
2021/05/02 06:29:23;;;;;;;33.87;27.57;;;9.00;99.90;;;;;;5034632;28;20973;-72
2021/05/02 06:31:48;;;;;;;33.00;25.93;;;9.10;99.90;;;;;;5052462;28;20614;-72
2021/05/02 06:34:14;;;;;;;28.47;23.77;;;9.10;99.90;;;;;;5052538;28;20438;-73
2021/05/02 06:36:41;;;;;;;31.90;27.30;;;9.10;99.90;;;;;;5052010;28;20176;-72
2021/05/02 06:39:10;;;;;;;32.27;25.60;;;9.10;99.90;;;;;;5052491;28;20189;-72
2021/05/02 06:41:38;;;;;;;30.97;23.37;;;9.20;99.90;;;;;;5048548;28;20465;-72
2021/05/02 06:44:04;;;;;;;29.07;24.60;;;9.30;99.90;;;;;;5048755;28;20430;-72
2021/05/02 06:46:30;;;;;;;28.60;22.97;;;9.30;99.90;;;;;;5052068;28;20975;-72
2021/05/02 06:49:04;;;;;;;25.67;21.57;;;9.30;99.90;;;;;;5052168;28;20178;-73
2021/05/02 06:51:29;;;;;;;29.60;21.93;;;9.30;99.90;;;;;;5052114;28;20477;-74
2021/05/02 06:53:56;;;;;;;24.77;21.90;;;9.50;99.90;;;;;;5047571;28;20831;-74
2021/05/02 06:56:22;;;;;;;25.30;21.23;;;9.80;99.90;;;;;;5051340;28;20183;-74
2021/05/02 06:58:48;;;;;;;29.37;23.40;;;10.10;99.90;;;;;;5051574;28;20439;-73
2021/05/02 07:01:14;;;;;;;21.83;19.50;;;10.50;99.90;;;;;;5051471;28;20593;-74
2021/05/02 07:03:40;;;;;;;21.80;19.00;;;10.70;99.90;;;;;;5051692;28;20844;-73
2021/05/02 07:06:05;;;;;;;23.23;19.33;;;10.70;99.90;;;;;;5051488;28;20176;-75
2021/05/02 07:08:31;;;;;;;21.10;18.87;;;10.60;99.90;;;;;;5051609;28;20184;-72
2021/05/02 07:10:57;;;;;;;23.60;20.47;;;10.20;99.90;;;;;;5051770;28;20266;-73
2021/05/02 07:13:24;;;;;;;23.50;19.30;;;10.00;99.90;;;;;;5051376;28;20191;-75
2021/05/02 07:15:49;;;;;;;23.13;19.93;;;9.80;99.90;;;;;;5051369;28;20429;-72
2021/05/02 07:18:15;;;;;;;23.33;20.93;;;9.60;99.90;;;;;;5051391;28;20774;-74
2021/05/02 07:20:40;;;;;;;26.53;20.60;;;9.70;99.90;;;;;;5051343;28;20702;-72
2021/05/02 07:23:06;;;;;;;23.70;19.00;;;9.90;99.90;;;;;;5051425;28;20261;-72
2021/05/02 07:25:31;;;;;;;24.53;18.97;;;10.20;99.90;;;;;;5050938;28;20185;-73
2021/05/02 07:27:57;;;;;;;22.03;18.83;;;10.30;99.90;;;;;;5051519;28;20800;-72
2021/05/02 07:30:23;;;;;;;23.93;19.37;;;10.60;99.90;;;;;;5051034;28;20227;-72
2021/05/02 07:32:48;;;;;;;21.20;18.90;;;10.60;99.90;;;;;;5051615;28;20185;-72
2021/05/02 07:35:14;;;;;;;21.77;19.33;;;10.70;99.90;;;;;;5051053;28;20209;-74
2021/05/02 07:37:40;;;;;;;22.83;18.07;;;10.70;99.90;;;;;;5049933;28;20189;-71
2021/05/02 07:40:07;;;;;;;22.63;19.90;;;10.50;99.90;;;;;;5032778;28;20258;-72
2021/05/02 07:42:33;;;;;;;22.63;19.37;;;10.70;99.90;;;;;;5047089;28;20214;-73
2021/05/02 07:44:59;;;;;;;27.50;20.60;;;10.90;99.90;;;;;;5051199;28;20418;-72
2021/05/02 07:47:24;;;;;;;21.70;18.27;;;11.20;99.90;;;;;;5050792;28;20182;-72
2021/05/02 07:49:50;;;;;;;20.87;16.30;;;11.40;99.90;;;;;;5050591;28;20204;-73
2021/05/02 07:52:16;;;;;;;19.67;17.57;;;11.40;99.90;;;;;;5050197;28;20219;-72
2021/05/02 07:54:43;;;;;;;18.90;16.30;;;11.30;99.90;;;;;;5050420;28;20236;-72
2021/05/02 07:57:08;;;;;;;17.63;15.80;;;11.30;99.90;;;;;;5050789;28;20932;-72
2021/05/02 07:59:34;;;;;;;19.50;16.27;;;11.60;99.90;;;;;;5050798;28;20429;-72
2021/05/02 08:01:59;;;;;;;19.70;16.80;;;11.30;99.90;;;;;;5050452;28;20314;-74
2021/05/02 08:04:25;;;;;;;18.67;15.30;;;11.60;99.90;;;;;;5050555;28;20179;-72
2021/05/02 08:06:51;;;;;;;17.77;15.93;;;12.20;99.90;;;;;;5032557;28;20188;-72
2021/05/02 08:09:16;;;;;;;17.70;15.50;;;12.80;99.90;;;;;;5050679;28;20644;-73
2021/05/02 08:11:42;;;;;;;20.13;16.93;;;13.40;99.90;;;;;;5032676;28;20443;-72
2021/05/02 08:14:07;;;;;;;17.43;14.53;;;14.00;99.90;;;;;;5050731;28;20205;-72
2021/05/02 08:16:33;;;;;;;17.60;15.00;;;14.00;99.90;;;;;;5050334;28;20185;-75
2021/05/02 08:19:01;;;;;;;22.23;16.73;;;14.60;99.90;;;;;;5050879;28;20547;-73
2021/05/02 08:21:27;;;;;;;16.20;14.50;;;14.90;99.90;;;;;;5049960;28;20552;-72
2021/05/02 08:23:53;;;;;;;20.50;16.67;;;14.60;99.90;;;;;;5050483;28;20842;-72
2021/05/02 08:26:19;;;;;;;17.30;15.00;;;14.30;99.90;;;;;;5032054;28;20462;-73
2021/05/02 08:28:45;;;;;;;17.13;15.40;;;14.10;99.90;;;;;;5050452;28;20197;-73
2021/05/02 08:31:12;;;;;;;15.70;14.00;;;13.90;99.90;;;;;;5050045;28;20874;-73
2021/05/02 08:33:38;;;;;;;16.20;14.50;;;13.30;99.90;;;;;;5049567;28;20439;-75
2021/05/02 08:36:03;;;;;;;18.77;16.93;;;13.30;99.90;;;;;;5046176;28;20506;-73
2021/05/02 08:38:30;;;;;;;16.03;14.40;;;13.20;99.90;;;;;;5050237;28;20181;-73
2021/05/02 08:40:59;;;;;;;19.20;15.30;;;13.40;99.90;;;;;;5050157;28;20244;-74
2021/05/02 08:43:25;;;;;;;16.73;14.97;;;13.50;99.90;;;;;;5050058;28;20957;-73
2021/05/02 08:45:50;;;;;;;17.93;15.10;;;13.60;99.90;;;;;;5050175;28;20408;-73
2021/05/02 08:48:22;;;;;;;16.90;15.10;;;13.70;99.90;;;;;;5051296;28;20181;-73
2021/05/02 08:50:52;;;;;;;16.80;15.10;;;13.40;99.90;;;;;;5054412;28;20193;-74
2021/05/02 08:53:18;;;;;;;17.27;15.40;;;13.30;99.90;;;;;;5053549;28;20431;-73
2021/05/02 08:55:44;;;;;;;18.03;15.70;;;13.40;99.90;;;;;;5054122;28;20807;-73
2021/05/02 08:58:17;;;;;;;17.30;15.60;;;13.70;99.90;;;;;;5054239;28;20671;-74
2021/05/02 09:00:42;;;;;;;19.70;15.10;;;13.80;99.90;;;;;;5054152;28;20280;-73
2021/05/02 09:03:08;;;;;;;17.90;16.00;;;13.80;99.90;;;;;;5054452;28;20839;-74
2021/05/02 09:05:43;;;;;;;22.63;16.23;;;13.50;99.90;;;;;;5053964;28;20173;-73
2021/05/02 09:08:09;;;;;;;17.23;15.50;;;13.20;99.90;;;;;;5051160;28;20181;-74
2021/05/02 09:10:35;;;;;;;17.40;14.63;;;13.80;99.90;;;;;;5036118;28;20440;-73
2021/05/02 09:13:03;;;;;;;18.43;15.80;;;14.50;99.90;;;;;;5054114;28;20834;-73
2021/05/02 09:15:30;;;;;;;17.50;15.70;;;14.60;99.90;;;;;;5053604;28;20435;-72
2021/05/02 09:20:53;;;;;;;18.50;16.50;;;14.30;99.90;;;;;;5053656;28;20461;-74
2021/05/02 09:23:19;;;;;;;17.20;15.50;;;13.60;99.90;;;;;;5052047;28;20426;-74
2021/05/02 09:25:49;;;;;;;19.83;15.23;;;13.10;99.90;;;;;;5053612;28;20412;-72
2021/05/02 09:28:15;;;;;;;17.07;15.27;;;13.70;99.90;;;;;;5053921;28;20188;-74
2021/05/02 09:30:41;;;;;;;16.87;15.07;;;13.90;99.90;;;;;;5035739;28;20447;-73
2021/05/02 09:33:06;;;;;;;17.93;16.03;;;14.10;99.90;;;;;;5053714;28;20420;-72
2021/05/02 09:35:34;;;;;;;20.70;15.60;;;13.70;99.90;;;;;;5035653;28;20185;-73
2021/05/02 09:38:17;;;;;;;18.50;16.57;;;13.60;99.90;;;;;;5049641;28;20195;-73
2021/05/02 09:40:49;;;;;;;18.50;15.90;;;14.00;99.90;;;;;;5050642;28;20451;-73
2021/05/02 09:43:34;;;;;;;17.37;15.63;;;14.40;99.90;;;;;;5033468;28;20523;-72
2021/05/02 09:49:01;;;;;;;25.20;16.37;;;13.80;99.90;;;;;;5053082;28;20457;-73
2021/05/02 09:51:29;;;;;;;19.03;16.97;;;13.20;99.90;;;;;;5053935;28;20435;-73
2021/05/02 09:54:15;;;;;;;19.80;16.30;;;13.10;99.90;;;;;;5053412;28;20435;-72
2021/05/02 09:56:44;;;;;;;21.93;17.27;;;13.90;99.90;;;;;;5050665;28;20450;-71
2021/05/02 09:59:19;;;;;;;18.90;16.77;;;14.80;99.90;;;;;;5052830;28;20435;-73
2021/05/02 10:02:14;;;;;;;15.97;14.40;;;14.70;99.90;;;;;;5050824;28;20528;-72
2021/05/02 10:04:51;;;;;;;19.90;14.60;;;15.40;99.90;;;;;;5032959;28;20431;-73
2021/05/02 10:07:35;;;;;;;17.53;15.83;;;16.20;99.90;;;;;;5052839;28;20955;-73
2021/05/02 10:10:02;;;;;;;17.00;15.30;;;15.80;99.90;;;;;;5049342;28;20439;-73
2021/05/02 10:12:28;;;;;;;18.30;16.40;;;15.50;99.90;;;;;;5051264;28;20454;-72
2021/05/02 10:14:54;;;;;;;19.00;17.10;;;14.90;99.90;;;;;;5052852;28;20456;-74
2021/05/02 10:17:20;;;;;;;19.23;17.27;;;14.30;99.90;;;;;;5052461;28;20690;-73
2021/05/02 10:19:45;;;;;;;22.33;19.40;;;13.40;99.90;;;;;;5052545;28;20475;-72
2021/05/02 10:22:11;;;;;;;24.20;19.60;;;13.20;99.90;;;;;;5052794;28;20210;-73
2021/05/02 10:24:37;;;;;;;21.47;17.93;;;13.90;99.90;;;;;;5052536;28;20192;-73
2021/05/02 10:27:07;;;;;;;21.70;19.20;;;15.10;99.90;;;;;;5052568;28;20173;-73
2021/05/02 10:29:34;;;;;;;20.10;17.90;;;15.40;99.90;;;;;;5048835;28;20451;-74
2021/05/02 10:32:04;;;;;;;20.07;18.13;;;15.00;99.90;;;;;;5047640;28;20985;-74
2021/05/02 10:34:32;;;;;;;19.80;17.50;;;15.00;99.90;;;;;;5048005;28;20462;-73
2021/05/02 10:37:23;;;;;;;23.27;18.30;;;14.60;99.90;;;;;;5052149;28;20424;-73
2021/05/02 10:39:58;;;;;;;22.10;17.17;;;14.90;99.90;;;;;;5050846;28;20474;-72
2021/05/02 10:42:48;;;;;;;18.77;16.97;;;15.30;99.90;;;;;;5052134;28;20466;-72
2021/05/02 10:45:48;;;;;;;20.93;18.70;;;15.30;99.90;;;;;;5050263;28;20427;-73
2021/05/02 10:48:13;;;;;;;20.17;18.13;;;15.00;99.90;;;;;;5049572;28;20939;-74
2021/05/02 10:50:45;;;;;;;19.90;17.83;;;15.40;99.90;;;;;;5034252;28;20535;-72
2021/05/02 10:53:11;;;;;;;19.53;16.90;;;15.90;99.90;;;;;;5034292;28;20191;-73
2021/05/02 10:55:59;;;;;;;20.00;17.93;;;16.20;99.90;;;;;;5051854;28;20556;-74
2021/05/02 10:58:31;;;;;;;17.30;15.70;;;17.00;99.90;;;;;;5052330;28;20213;-73
2021/05/02 11:01:00;;;;;;;18.93;16.90;;;17.40;99.90;;;;;;5052205;28;20458;-73
2021/05/02 11:03:35;;;;;;;18.20;16.00;;;17.30;99.90;;;;;;5052272;28;20419;-73
2021/05/02 11:06:04;;;;;;;18.23;16.33;;;17.50;99.90;;;;;;5043996;28;20419;-73
2021/05/02 11:08:56;;;;;;;19.43;17.53;;;17.20;99.90;;;;;;5030553;28;20416;-72
2021/05/02 11:11:31;;;;;;;19.10;17.17;;;17.20;99.90;;;;;;5051150;28;20460;-73
2021/05/02 11:16:35;;;;;;;19.23;17.30;;;15.60;99.90;;;;;;5052287;28;20941;-73
2021/05/02 11:19:02;;;;;;;21.00;17.90;;;15.20;99.90;;;;;;5052260;28;20867;-72
2021/05/02 11:22:10;;;;;;;19.77;17.67;;;14.30;99.90;;;;;;5051806;28;20977;-73
2021/05/02 11:24:46;;;;;;;18.37;16.73;;;13.60;99.90;;;;;;5008151;28;20427;-73
2021/05/02 11:32:32;;;;;;;25.90;20.97;;;12.40;99.90;;;;;;5051512;28;20419;-74
2021/05/02 11:35:02;;;;;;;25.20;22.60;;;12.10;99.90;;;;;;5052009;28;20418;-73
2021/05/02 11:38:05;;;;;;;24.13;21.50;;;11.70;99.90;;;;;;5052243;28;20504;-73
2021/05/02 11:40:31;;;;;;;24.80;22.10;;;11.50;99.90;;;;;;5048048;28;20454;-73
2021/05/02 11:42:59;;;;;;;25.60;22.87;;;11.80;99.90;;;;;;5051988;28;20451;-72
2021/05/02 11:45:44;;;;;;;23.43;20.93;;;12.40;99.90;;;;;;5051786;28;20185;-71
2021/05/02 11:48:16;;;;;;;20.80;17.33;;;13.00;99.90;;;;;;5030981;28;20879;-73
2021/05/02 11:50:43;;;;;;;17.97;16.13;;;13.40;99.90;;;;;;5051674;28;20833;-73
2021/05/02 11:53:09;;;;;;;14.80;13.43;;;13.80;99.90;;;;;;5051672;28;20432;-73
2021/05/02 11:55:40;;;;;;;10.53;9.63;;;14.00;99.90;;;;;;5051822;28;20585;-73
2021/05/02 11:58:12;;;;;;;10.43;9.53;;;14.00;99.90;;;;;;5051603;28;20648;-74
2021/05/02 12:00:42;;;;;;;9.43;8.60;;;13.70;99.90;;;;;;5051421;28;20473;-74
2021/05/02 12:03:10;;;;;;;10.23;9.33;;;13.90;99.90;;;;;;5051726;28;20826;-73
2021/05/02 12:05:53;;;;;;;11.33;10.23;;;13.90;99.90;;;;;;5051219;28;20439;-72
2021/05/02 12:08:22;;;;;;;10.90;10.00;;;14.10;99.90;;;;;;5051581;28;20458;-73
2021/05/02 12:10:52;;;;;;;16.73;11.30;;;14.10;99.90;;;;;;5051245;28;20519;-73
2021/05/02 12:13:30;;;;;;;11.90;10.70;;;13.70;99.90;;;;;;5051429;28;20469;-72
2021/05/02 12:16:16;;;;;;;12.10;10.87;;;13.70;99.90;;;;;;5050970;28;20458;-73
2021/05/02 12:18:45;;;;;;;11.63;10.63;;;13.60;99.90;;;;;;5040742;28;20829;-73
2021/05/02 12:21:18;;;;;;;16.00;14.50;;;13.40;99.90;;;;;;5051042;28;20501;-75
2021/05/02 12:23:44;;;;;;;15.40;13.90;;;13.00;99.90;;;;;;5050871;28;20922;-72
2021/05/02 12:26:12;;;;;;;16.90;13.40;;;12.60;99.90;;;;;;5033026;28;20466;-73
2021/05/02 12:28:39;;;;;;;11.20;10.10;;;12.50;99.90;;;;;;5050855;28;20416;-73
2021/05/02 12:31:07;;;;;;;12.00;10.80;;;12.10;99.90;;;;;;5050989;28;20443;-75
2021/05/02 12:33:36;;;;;;;12.37;11.27;;;11.50;99.90;;;;;;5050991;28;20941;-73
2021/05/02 12:36:10;;;;;;;11.70;10.70;;;11.30;99.90;;;;;;5046825;28;20423;-73
2021/05/02 12:38:36;;;;;;;12.07;10.20;;;10.90;99.90;;;;;;5033159;28;20937;-71
2021/05/02 12:41:03;;;;;;;10.63;9.60;;;11.00;99.90;;;;;;5050859;28;20454;-72
2021/05/02 12:43:32;;;;;;;10.23;9.23;;;11.20;99.90;;;;;;5050758;28;20871;-72
2021/05/02 12:45:58;;;;;;;9.07;8.20;;;11.60;99.90;;;;;;5050092;28;20417;-74
2021/05/02 12:48:30;;;;;;;7.05;6.55;;;12.40;99.90;;;;;;5049391;28;20896;-72
2021/05/02 12:50:57;;;;;;;7.03;6.43;;;13.00;99.90;;;;;;5050714;28;20197;-73
2021/05/02 12:53:41;;;;;;;9.00;8.10;;;13.00;99.90;;;;;;5050861;28;20428;-72
2021/05/02 12:56:08;;;;;;;9.43;8.43;;;13.10;99.90;;;;;;5047367;28;20424;-72